createdAt,value
2022-10-19T00:10:05.003Z,19
2022-10-19T00:39:09.886Z,20
2022-10-19T01:08:15.563Z,25
2022-10-19T01:37:18.515Z,30
2022-10-19T02:06:24.573Z,29
2022-10-19T02:35:34.048Z,27
2022-10-19T03:04:36.456Z,29
2022-10-19T03:33:41.813Z,22
2022-10-19T04:02:49.172Z,21
2022-10-19T04:31:55.330Z,23
2022-10-19T05:00:52.192Z,28
2022-10-19T05:29:53.880Z,26
2022-10-19T05:58:48.826Z,29
2022-10-19T06:27:57.717Z,23
2022-10-19T06:57:05.722Z,27
2022-10-19T07:26:16.057Z,27
2022-10-19T07:55:25.407Z,31
2022-10-19T08:24:39.655Z,31
2022-10-19T08:53:45.574Z,23
2022-10-19T09:22:57.778Z,26
2022-10-19T09:52:12.465Z,29
2022-10-19T10:21:26.681Z,29
2022-10-19T10:50:40.601Z,35
2022-10-19T11:19:52.132Z,30
2022-10-19T11:49:05.473Z,27
2022-10-19T12:18:16.867Z,23
2022-10-19T12:47:30.121Z,21
2022-10-19T13:16:42.439Z,17
2022-10-19T13:45:48.521Z,16
2022-10-19T14:14:56.860Z,14
2022-10-19T14:44:05.942Z,13
2022-10-19T15:13:04.855Z,11
2022-10-19T15:42:13.767Z,9
2022-10-19T16:11:21.168Z,10
2022-10-19T16:40:24.533Z,13
2022-10-19T17:09:41.617Z,34
2022-10-19T17:38:00.850Z,28
2022-10-19T18:07:06.443Z,13
2022-10-19T18:36:14.174Z,16
2022-10-19T19:05:21.781Z,13
2022-10-19T19:34:27.830Z,17
2022-10-19T20:03:35.266Z,14
2022-10-19T20:32:42.511Z,16
2022-10-19T21:01:50.594Z,16
2022-10-19T21:30:52.904Z,18
2022-10-19T21:59:55.447Z,17
2022-10-19T22:29:07.020Z,17
2022-10-19T22:58:47.971Z,14
2022-10-19T23:27:34.228Z,20
2022-10-19T23:56:24.856Z,26
